sensor_id;sensor_type;location;lat;lon;timestamp;P1;durP1;ratioP1;P2;durP2;ratioP2
15806;SDS011;8005;51.368;6.140;2023-03-01T00:00:26;11.50;;;7.83;;
15806;SDS011;8005;51.368;6.140;2023-03-01T00:01:58;11.10;;;8.90;;
15806;SDS011;8005;51.368;6.140;2023-03-01T00:03:30;10.75;;;7.65;;
15806;SDS011;8005;51.368;6.140;2023-03-01T00:05:03;13.93;;;7.53;;
15806;SDS011;8005;51.368;6.140;2023-03-01T00:06:35;13.25;;;7.85;;
15806;SDS011;8005;51.368;6.140;2023-03-01T00:09:40;11.50;;;7.40;;
15806;SDS011;8005;51.368;6.140;2023-03-01T00:11:14;12.93;;;7.75;;
15806;SDS011;8005;51.368;6.140;2023-03-01T00:12:47;13.80;;;7.45;;
15806;SDS011;8005;51.368;6.140;2023-03-01T00:14:18;12.05;;;7.30;;
15806;SDS011;8005;51.368;6.140;2023-03-01T00:15:50;15.27;;;7.07;;
15806;SDS011;8005;51.368;6.140;2023-03-01T00:17:22;11.10;;;6.97;;
15806;SDS011;8005;51.368;6.140;2023-03-01T00:18:55;10.20;;;7.30;;
15806;SDS011;8005;51.368;6.140;2023-03-01T00:20:27;10.70;;;7.90;;
15806;SDS011;8005;51.368;6.140;2023-03-01T00:21:59;12.27;;;7.13;;
15806;SDS011;8005;51.368;6.140;2023-03-01T00:23:31;12.97;;;7.40;;
15806;SDS011;8005;51.368;6.140;2023-03-01T00:25:05;12.63;;;7.47;;
15806;SDS011;8005;51.368;6.140;2023-03-01T00:26:37;13.63;;;7.15;;
15806;SDS011;8005;51.368;6.140;2023-03-01T00:28:10;15.45;;;7.57;;
15806;SDS011;8005;51.368;6.140;2023-03-01T00:29:41;13.37;;;7.47;;
15806;SDS011;8005;51.368;6.140;2023-03-01T00:31:20;12.05;;;7.72;;
15806;SDS011;8005;51.368;6.140;2023-03-01T00:32:53;10.98;;;7.45;;
15806;SDS011;8005;51.368;6.140;2023-03-01T00:34:27;12.07;;;7.70;;
15806;SDS011;8005;51.368;6.140;2023-03-01T00:35:59;13.75;;;7.63;;
15806;SDS011;8005;51.368;6.140;2023-03-01T00:37:31;14.45;;;7.70;;
15806;SDS011;8005;51.368;6.140;2023-03-01T00:39:04;10.67;;;7.50;;
15806;SDS011;8005;51.368;6.140;2023-03-01T00:40:38;12.10;;;7.45;;
15806;SDS011;8005;51.368;6.140;2023-03-01T00:42:10;9.07;;;5.77;;
15806;SDS011;8005;51.368;6.140;2023-03-01T00:43:43;11.60;;;6.95;;
15806;SDS011;8005;51.368;6.140;2023-03-01T00:45:16;12.35;;;7.15;;
15806;SDS011;8005;51.368;6.140;2023-03-01T00:46:48;13.57;;;7.72;;
15806;SDS011;8005;51.368;6.140;2023-03-01T00:48:20;9.45;;;6.68;;
15806;SDS011;8005;51.368;6.140;2023-03-01T00:49:52;11.90;;;6.97;;
15806;SDS011;8005;51.368;6.140;2023-03-01T00:51:26;11.63;;;6.80;;
15806;SDS011;8005;51.368;6.140;2023-03-01T00:53:00;11.32;;;6.50;;
15806;SDS011;8005;51.368;6.140;2023-03-01T00:54:32;12.65;;;6.93;;
15806;SDS011;8005;51.368;6.140;2023-03-01T00:56:06;11.05;;;6.72;;
15806;SDS011;8005;51.368;6.140;2023-03-01T00:57:38;10.90;;;7.15;;
15806;SDS011;8005;51.368;6.140;2023-03-01T00:59:10;11.88;;;6.78;;
15806;SDS011;8005;51.368;6.140;2023-03-01T01:00:43;19.63;;;7.32;;
15806;SDS011;8005;51.368;6.140;2023-03-01T01:02:15;11.90;;;7.03;;
15806;SDS011;8005;51.368;6.140;2023-03-01T01:05:20;10.32;;;6.43;;
15806;SDS011;8005;51.368;6.140;2023-03-01T01:06:52;12.40;;;7.03;;
15806;SDS011;8005;51.368;6.140;2023-03-01T01:08:24;13.82;;;7.15;;
15806;SDS011;8005;51.368;6.140;2023-03-01T01:09:56;12.52;;;7.03;;
15806;SDS011;8005;51.368;6.140;2023-03-01T01:11:32;13.57;;;7.45;;
15806;SDS011;8005;51.368;6.140;2023-03-01T01:13:04;11.00;;;6.90;;
15806;SDS011;8005;51.368;6.140;2023-03-01T01:14:36;11.43;;;7.35;;
15806;SDS011;8005;51.368;6.140;2023-03-01T01:16:08;16.33;;;8.73;;
15806;SDS011;8005;51.368;6.140;2023-03-01T01:17:41;22.33;;;10.73;;
15806;SDS011;8005;51.368;6.140;2023-03-01T01:19:13;17.05;;;8.98;;
15806;SDS011;8005;51.368;6.140;2023-03-01T01:20:45;17.73;;;8.70;;
15806;SDS011;8005;51.368;6.140;2023-03-01T01:22:18;12.20;;;8.43;;
15806;SDS011;8005;51.368;6.140;2023-03-01T01:23:50;12.32;;;7.13;;
15806;SDS011;8005;51.368;6.140;2023-03-01T01:25:22;14.00;;;7.57;;
15806;SDS011;8005;51.368;6.140;2023-03-01T01:26:56;12.98;;;8.02;;
15806;SDS011;8005;51.368;6.140;2023-03-01T01:28:28;13.30;;;8.27;;
15806;SDS011;8005;51.368;6.140;2023-03-01T01:30:00;14.70;;;8.10;;
15806;SDS011;8005;51.368;6.140;2023-03-01T01:31:33;9.98;;;6.93;;
15806;SDS011;8005;51.368;6.140;2023-03-01T01:33:06;12.38;;;6.80;;
15806;SDS011;8005;51.368;6.140;2023-03-01T01:34:38;11.80;;;7.38;;
15806;SDS011;8005;51.368;6.140;2023-03-01T01:36:10;11.40;;;7.15;;
15806;SDS011;8005;51.368;6.140;2023-03-01T01:37:43;11.07;;;6.70;;
15806;SDS011;8005;51.368;6.140;2023-03-01T01:39:15;16.95;;;8.73;;
15806;SDS011;8005;51.368;6.140;2023-03-01T01:40:47;14.60;;;7.50;;
15806;SDS011;8005;51.368;6.140;2023-03-01T01:42:20;11.25;;;7.72;;
15806;SDS011;8005;51.368;6.140;2023-03-01T01:46:04;11.27;;;6.65;;
15806;SDS011;8005;51.368;6.140;2023-03-01T01:47:45;11.85;;;7.75;;
15806;SDS011;8005;51.368;6.140;2023-03-01T01:49:34;14.60;;;8.32;;
15806;SDS011;8005;51.368;6.140;2023-03-01T01:51:11;13.50;;;9.10;;
15806;SDS011;8005;51.368;6.140;2023-03-01T01:52:47;13.23;;;7.93;;
15806;SDS011;8005;51.368;6.140;2023-03-01T01:54:22;14.02;;;8.48;;
15806;SDS011;8005;51.368;6.140;2023-03-01T01:55:58;11.80;;;8.07;;
15806;SDS011;8005;51.368;6.140;2023-03-01T01:57:33;14.18;;;8.63;;
15806;SDS011;8005;51.368;6.140;2023-03-01T01:59:13;13.88;;;7.68;;
15806;SDS011;8005;51.368;6.140;2023-03-01T02:00:46;17.50;;;8.00;;
15806;SDS011;8005;51.368;6.140;2023-03-01T02:02:19;13.90;;;7.80;;
15806;SDS011;8005;51.368;6.140;2023-03-01T02:07:25;11.15;;;7.45;;
15806;SDS011;8005;51.368;6.140;2023-03-01T02:08:59;15.80;;;8.32;;
15806;SDS011;8005;51.368;6.140;2023-03-01T02:10:33;16.45;;;7.40;;
15806;SDS011;8005;51.368;6.140;2023-03-01T02:12:07;15.25;;;7.32;;
15806;SDS011;8005;51.368;6.140;2023-03-01T02:13:40;11.45;;;7.50;;
15806;SDS011;8005;51.368;6.140;2023-03-01T02:15:13;14.35;;;7.75;;
15806;SDS011;8005;51.368;6.140;2023-03-01T02:16:45;13.52;;;8.82;;
15806;SDS011;8005;51.368;6.140;2023-03-01T02:18:18;13.45;;;7.68;;
15806;SDS011;8005;51.368;6.140;2023-03-01T02:19:57;13.43;;;7.88;;
15806;SDS011;8005;51.368;6.140;2023-03-01T02:21:37;12.32;;;7.53;;
15806;SDS011;8005;51.368;6.140;2023-03-01T02:23:22;11.45;;;8.02;;
15806;SDS011;8005;51.368;6.140;2023-03-01T02:26:33;13.00;;;7.80;;
15806;SDS011;8005;51.368;6.140;2023-03-01T02:28:19;14.00;;;8.27;;
15806;SDS011;8005;51.368;6.140;2023-03-01T02:29:55;12.13;;;7.43;;
15806;SDS011;8005;51.368;6.140;2023-03-01T02:33:16;15.90;;;9.15;;
15806;SDS011;8005;51.368;6.140;2023-03-01T02:34:48;12.25;;;8.07;;
15806;SDS011;8005;51.368;6.140;2023-03-01T02:36:22;13.52;;;8.02;;
15806;SDS011;8005;51.368;6.140;2023-03-01T02:37:56;12.35;;;8.25;;
15806;SDS011;8005;51.368;6.140;2023-03-01T02:40:06;11.98;;;7.65;;
15806;SDS011;8005;51.368;6.140;2023-03-01T02:41:34;13.65;;;8.25;;
15806;SDS011;8005;51.368;6.140;2023-03-01T02:43:08;14.13;;;7.85;;
15806;SDS011;8005;51.368;6.140;2023-03-01T02:44:40;13.88;;;7.70;;
15806;SDS011;8005;51.368;6.140;2023-03-01T02:47:47;14.40;;;7.80;;
15806;SDS011;8005;51.368;6.140;2023-03-01T02:55:12;15.07;;;9.13;;
15806;SDS011;8005;51.368;6.140;2023-03-01T02:56:47;12.15;;;8.05;;
15806;SDS011;8005;51.368;6.140;2023-03-01T02:58:22;13.75;;;7.57;;
15806;SDS011;8005;51.368;6.140;2023-03-01T02:59:55;13.02;;;8.13;;
15806;SDS011;8005;51.368;6.140;2023-03-01T03:01:29;14.10;;;7.93;;
15806;SDS011;8005;51.368;6.140;2023-03-01T03:03:15;12.02;;;7.22;;
15806;SDS011;8005;51.368;6.140;2023-03-01T03:04:48;11.80;;;7.47;;
15806;SDS011;8005;51.368;6.140;2023-03-01T03:08:00;14.55;;;7.80;;
15806;SDS011;8005;51.368;6.140;2023-03-01T03:09:36;17.10;;;8.30;;
15806;SDS011;8005;51.368;6.140;2023-03-01T03:11:08;9.00;;;5.97;;
15806;SDS011;8005;51.368;6.140;2023-03-01T03:12:40;12.70;;;7.97;;
15806;SDS011;8005;51.368;6.140;2023-03-01T03:14:14;13.80;;;8.13;;
15806;SDS011;8005;51.368;6.140;2023-03-01T03:15:49;14.45;;;8.25;;
15806;SDS011;8005;51.368;6.140;2023-03-01T03:17:21;15.68;;;8.27;;
15806;SDS011;8005;51.368;6.140;2023-03-01T03:18:53;13.35;;;8.38;;
15806;SDS011;8005;51.368;6.140;2023-03-01T03:20:26;14.98;;;8.43;;
15806;SDS011;8005;51.368;6.140;2023-03-01T03:21:59;13.80;;;8.07;;
15806;SDS011;8005;51.368;6.140;2023-03-01T03:23:31;11.40;;;7.60;;
15806;SDS011;8005;51.368;6.140;2023-03-01T03:25:03;12.35;;;8.07;;
15806;SDS011;8005;51.368;6.140;2023-03-01T03:26:36;17.73;;;8.13;;
15806;SDS011;8005;51.368;6.140;2023-03-01T03:28:08;10.52;;;6.72;;
15806;SDS011;8005;51.368;6.140;2023-03-01T03:29:43;11.77;;;7.40;;
15806;SDS011;8005;51.368;6.140;2023-03-01T03:31:15;16.58;;;7.40;;
15806;SDS011;8005;51.368;6.140;2023-03-01T03:32:47;14.52;;;7.55;;
15806;SDS011;8005;51.368;6.140;2023-03-01T03:34:23;15.30;;;8.18;;
15806;SDS011;8005;51.368;6.140;2023-03-01T03:35:56;12.93;;;7.47;;
15806;SDS011;8005;51.368;6.140;2023-03-01T03:37:28;14.10;;;6.95;;
15806;SDS011;8005;51.368;6.140;2023-03-01T03:39:19;12.70;;;7.70;;
15806;SDS011;8005;51.368;6.140;2023-03-01T03:40:54;14.75;;;8.23;;
15806;SDS011;8005;51.368;6.140;2023-03-01T03:42:34;13.88;;;8.00;;
15806;SDS011;8005;51.368;6.140;2023-03-01T03:44:09;11.52;;;6.43;;
15806;SDS011;8005;51.368;6.140;2023-03-01T03:45:41;12.93;;;7.57;;
15806;SDS011;8005;51.368;6.140;2023-03-01T03:47:13;14.90;;;8.45;;
15806;SDS011;8005;51.368;6.140;2023-03-01T03:48:45;15.20;;;7.97;;
15806;SDS011;8005;51.368;6.140;2023-03-01T03:50:18;14.88;;;8.27;;
15806;SDS011;8005;51.368;6.140;2023-03-01T03:51:50;17.77;;;8.52;;
15806;SDS011;8005;51.368;6.140;2023-03-01T03:53:23;14.80;;;7.68;;
15806;SDS011;8005;51.368;6.140;2023-03-01T03:54:56;16.70;;;9.25;;
15806;SDS011;8005;51.368;6.140;2023-03-01T03:56:28;14.35;;;8.13;;
15806;SDS011;8005;51.368;6.140;2023-03-01T03:58:01;13.57;;;8.00;;
15806;SDS011;8005;51.368;6.140;2023-03-01T03:59:38;12.95;;;8.02;;
15806;SDS011;8005;51.368;6.140;2023-03-01T04:01:10;10.93;;;6.50;;
15806;SDS011;8005;51.368;6.140;2023-03-01T04:02:42;14.00;;;7.80;;
15806;SDS011;8005;51.368;6.140;2023-03-01T04:04:15;13.27;;;8.18;;
15806;SDS011;8005;51.368;6.140;2023-03-01T04:05:50;13.68;;;8.10;;
15806;SDS011;8005;51.368;6.140;2023-03-01T04:08:55;12.52;;;7.40;;
15806;SDS011;8005;51.368;6.140;2023-03-01T04:10:49;16.38;;;8.23;;
15806;SDS011;8005;51.368;6.140;2023-03-01T04:12:22;13.52;;;7.82;;
15806;SDS011;8005;51.368;6.140;2023-03-01T04:13:55;13.60;;;8.65;;
15806;SDS011;8005;51.368;6.140;2023-03-01T04:15:30;18.55;;;8.48;;
15806;SDS011;8005;51.368;6.140;2023-03-01T04:17:02;13.98;;;8.68;;
15806;SDS011;8005;51.368;6.140;2023-03-01T04:18:36;13.70;;;7.75;;
15806;SDS011;8005;51.368;6.140;2023-03-01T04:20:09;12.73;;;7.83;;
15806;SDS011;8005;51.368;6.140;2023-03-01T04:21:56;16.35;;;7.88;;
15806;SDS011;8005;51.368;6.140;2023-03-01T04:23:28;17.55;;;8.18;;
15806;SDS011;8005;51.368;6.140;2023-03-01T04:25:00;11.93;;;5.88;;
15806;SDS011;8005;51.368;6.140;2023-03-01T04:26:40;12.65;;;8.38;;
15806;SDS011;8005;51.368;6.140;2023-03-01T04:28:12;11.98;;;7.50;;
15806;SDS011;8005;51.368;6.140;2023-03-01T04:31:23;13.77;;;8.60;;
15806;SDS011;8005;51.368;6.140;2023-03-01T04:32:55;16.00;;;8.18;;
15806;SDS011;8005;51.368;6.140;2023-03-01T04:34:27;14.10;;;8.88;;
15806;SDS011;8005;51.368;6.140;2023-03-01T04:36:00;12.13;;;6.63;;
15806;SDS011;8005;51.368;6.140;2023-03-01T04:37:32;14.35;;;8.00;;
15806;SDS011;8005;51.368;6.140;2023-03-01T04:39:04;17.67;;;8.75;;
15806;SDS011;8005;51.368;6.140;2023-03-01T04:40:49;13.93;;;8.32;;
15806;SDS011;8005;51.368;6.140;2023-03-01T04:42:21;18.65;;;9.18;;
15806;SDS011;8005;51.368;6.140;2023-03-01T04:43:53;13.80;;;9.07;;
15806;SDS011;8005;51.368;6.140;2023-03-01T04:45:25;13.18;;;8.07;;
15806;SDS011;8005;51.368;6.140;2023-03-01T04:46:57;13.93;;;8.57;;
15806;SDS011;8005;51.368;6.140;2023-03-01T04:50:21;12.52;;;7.75;;
15806;SDS011;8005;51.368;6.140;2023-03-01T04:51:55;16.80;;;8.80;;
15806;SDS011;8005;51.368;6.140;2023-03-01T04:53:29;16.50;;;9.02;;
15806;SDS011;8005;51.368;6.140;2023-03-01T04:55:02;15.23;;;8.65;;
15806;SDS011;8005;51.368;6.140;2023-03-01T04:56:35;12.63;;;7.80;;
15806;SDS011;8005;51.368;6.140;2023-03-01T04:58:07;11.18;;;7.28;;
15806;SDS011;8005;51.368;6.140;2023-03-01T04:59:39;15.53;;;8.60;;
15806;SDS011;8005;51.368;6.140;2023-03-01T05:01:11;14.15;;;8.68;;
15806;SDS011;8005;51.368;6.140;2023-03-01T05:02:52;15.23;;;8.60;;
15806;SDS011;8005;51.368;6.140;2023-03-01T05:04:28;13.50;;;8.25;;
15806;SDS011;8005;51.368;6.140;2023-03-01T05:06:02;14.73;;;7.82;;
15806;SDS011;8005;51.368;6.140;2023-03-01T05:07:34;18.10;;;8.52;;
15806;SDS011;8005;51.368;6.140;2023-03-01T05:09:06;16.67;;;8.63;;
15806;SDS011;8005;51.368;6.140;2023-03-01T05:10:38;13.13;;;6.88;;
15806;SDS011;8005;51.368;6.140;2023-03-01T05:12:10;15.97;;;8.67;;
15806;SDS011;8005;51.368;6.140;2023-03-01T05:13:42;14.17;;;8.10;;
15806;SDS011;8005;51.368;6.140;2023-03-01T05:15:14;16.23;;;8.85;;
15806;SDS011;8005;51.368;6.140;2023-03-01T05:16:46;13.07;;;8.53;;
15806;SDS011;8005;51.368;6.140;2023-03-01T05:18:18;15.07;;;8.07;;
15806;SDS011;8005;51.368;6.140;2023-03-01T05:19:50;15.60;;;9.45;;
15806;SDS011;8005;51.368;6.140;2023-03-01T05:21:22;13.70;;;8.15;;
15806;SDS011;8005;51.368;6.140;2023-03-01T05:22:56;14.23;;;7.88;;
15806;SDS011;8005;51.368;6.140;2023-03-01T05:24:36;12.30;;;8.05;;
15806;SDS011;8005;51.368;6.140;2023-03-01T05:26:10;14.13;;;8.27;;
15806;SDS011;8005;51.368;6.140;2023-03-01T05:28:01;15.90;;;7.85;;
15806;SDS011;8005;51.368;6.140;2023-03-01T05:29:35;14.93;;;8.05;;
15806;SDS011;8005;51.368;6.140;2023-03-01T05:31:07;12.93;;;7.45;;
15806;SDS011;8005;51.368;6.140;2023-03-01T05:32:44;12.60;;;7.95;;
15806;SDS011;8005;51.368;6.140;2023-03-01T05:34:18;17.27;;;9.40;;
15806;SDS011;8005;51.368;6.140;2023-03-01T05:35:59;16.25;;;8.23;;
15806;SDS011;8005;51.368;6.140;2023-03-01T05:37:31;13.13;;;8.18;;
15806;SDS011;8005;51.368;6.140;2023-03-01T05:39:03;18.57;;;8.80;;
15806;SDS011;8005;51.368;6.140;2023-03-01T05:40:37;17.60;;;9.38;;
15806;SDS011;8005;51.368;6.140;2023-03-01T05:42:10;15.82;;;8.32;;
15806;SDS011;8005;51.368;6.140;2023-03-01T05:43:43;16.38;;;10.02;;
15806;SDS011;8005;51.368;6.140;2023-03-01T05:45:16;17.58;;;9.48;;
15806;SDS011;8005;51.368;6.140;2023-03-01T05:46:49;16.77;;;8.80;;
15806;SDS011;8005;51.368;6.140;2023-03-01T05:48:21;14.20;;;6.88;;
15806;SDS011;8005;51.368;6.140;2023-03-01T05:49:54;14.02;;;8.52;;
15806;SDS011;8005;51.368;6.140;2023-03-01T05:51:26;14.90;;;8.57;;
15806;SDS011;8005;51.368;6.140;2023-03-01T05:53:02;14.05;;;7.32;;
15806;SDS011;8005;51.368;6.140;2023-03-01T05:54:39;14.45;;;9.07;;
15806;SDS011;8005;51.368;6.140;2023-03-01T05:56:11;15.17;;;8.67;;
15806;SDS011;8005;51.368;6.140;2023-03-01T05:57:43;14.73;;;7.72;;
15806;SDS011;8005;51.368;6.140;2023-03-01T05:59:15;14.32;;;8.70;;
15806;SDS011;8005;51.368;6.140;2023-03-01T06:00:48;16.33;;;8.75;;
15806;SDS011;8005;51.368;6.140;2023-03-01T06:02:20;15.20;;;8.90;;
15806;SDS011;8005;51.368;6.140;2023-03-01T06:03:52;16.05;;;8.07;;
15806;SDS011;8005;51.368;6.140;2023-03-01T06:05:24;11.70;;;6.65;;
15806;SDS011;8005;51.368;6.140;2023-03-01T06:06:56;15.88;;;8.48;;
15806;SDS011;8005;51.368;6.140;2023-03-01T06:08:29;13.98;;;8.70;;
15806;SDS011;8005;51.368;6.140;2023-03-01T06:10:05;12.40;;;7.93;;
15806;SDS011;8005;51.368;6.140;2023-03-01T06:11:38;14.45;;;8.60;;
15806;SDS011;8005;51.368;6.140;2023-03-01T06:13:10;14.32;;;8.25;;
15806;SDS011;8005;51.368;6.140;2023-03-01T06:14:42;16.95;;;8.48;;
15806;SDS011;8005;51.368;6.140;2023-03-01T06:16:26;17.40;;;10.10;;
15806;SDS011;8005;51.368;6.140;2023-03-01T06:18:47;20.60;;;12.55;;
15806;SDS011;8005;51.368;6.140;2023-03-01T06:20:20;24.27;;;13.00;;
15806;SDS011;8005;51.368;6.140;2023-03-01T06:21:53;23.23;;;12.88;;
15806;SDS011;8005;51.368;6.140;2023-03-01T06:23:28;18.00;;;10.77;;
15806;SDS011;8005;51.368;6.140;2023-03-01T06:25:02;17.38;;;9.75;;
15806;SDS011;8005;51.368;6.140;2023-03-01T06:26:37;18.20;;;8.95;;
15806;SDS011;8005;51.368;6.140;2023-03-01T06:28:09;14.10;;;6.97;;
15806;SDS011;8005;51.368;6.140;2023-03-01T06:29:41;17.75;;;9.45;;
15806;SDS011;8005;51.368;6.140;2023-03-01T06:31:14;16.67;;;8.88;;
15806;SDS011;8005;51.368;6.140;2023-03-01T06:32:48;18.27;;;10.18;;
15806;SDS011;8005;51.368;6.140;2023-03-01T06:34:24;16.33;;;11.10;;
15806;SDS011;8005;51.368;6.140;2023-03-01T06:35:58;16.45;;;10.07;;
15806;SDS011;8005;51.368;6.140;2023-03-01T06:37:30;19.48;;;10.23;;
15806;SDS011;8005;51.368;6.140;2023-03-01T06:39:02;16.75;;;9.10;;
15806;SDS011;8005;51.368;6.140;2023-03-01T06:40:36;15.65;;;8.95;;
15806;SDS011;8005;51.368;6.140;2023-03-01T06:42:08;15.57;;;8.82;;
15806;SDS011;8005;51.368;6.140;2023-03-01T06:43:41;15.48;;;8.95;;
15806;SDS011;8005;51.368;6.140;2023-03-01T06:45:18;14.13;;;9.45;;
15806;SDS011;8005;51.368;6.140;2023-03-01T06:46:51;16.42;;;9.07;;
15806;SDS011;8005;51.368;6.140;2023-03-01T06:48:23;15.93;;;9.25;;
15806;SDS011;8005;51.368;6.140;2023-03-01T06:49:55;9.60;;;6.45;;
15806;SDS011;8005;51.368;6.140;2023-03-01T06:51:27;17.27;;;9.63;;
15806;SDS011;8005;51.368;6.140;2023-03-01T06:53:04;17.73;;;9.65;;
15806;SDS011;8005;51.368;6.140;2023-03-01T06:54:40;14.75;;;8.20;;
15806;SDS011;8005;51.368;6.140;2023-03-01T06:56:12;16.75;;;8.57;;
15806;SDS011;8005;51.368;6.140;2023-03-01T06:57:45;23.50;;;9.35;;
15806;SDS011;8005;51.368;6.140;2023-03-01T06:59:17;16.55;;;8.73;;
15806;SDS011;8005;51.368;6.140;2023-03-01T07:00:50;20.40;;;10.07;;
15806;SDS011;8005;51.368;6.140;2023-03-01T07:02:22;17.13;;;9.50;;
15806;SDS011;8005;51.368;6.140;2023-03-01T07:03:57;15.80;;;8.48;;
15806;SDS011;8005;51.368;6.140;2023-03-01T07:05:29;15.90;;;9.63;;
15806;SDS011;8005;51.368;6.140;2023-03-01T07:08:37;18.75;;;10.48;;
15806;SDS011;8005;51.368;6.140;2023-03-01T07:10:10;22.13;;;13.45;;
15806;SDS011;8005;51.368;6.140;2023-03-01T07:11:43;29.45;;;16.52;;
15806;SDS011;8005;51.368;6.140;2023-03-01T07:13:15;24.63;;;15.35;;
15806;SDS011;8005;51.368;6.140;2023-03-01T07:14:49;22.88;;;14.65;;
15806;SDS011;8005;51.368;6.140;2023-03-01T07:16:24;21.90;;;14.45;;
15806;SDS011;8005;51.368;6.140;2023-03-01T07:18:02;17.83;;;11.45;;
15806;SDS011;8005;51.368;6.140;2023-03-01T07:19:38;18.00;;;11.82;;
15806;SDS011;8005;51.368;6.140;2023-03-01T07:21:11;17.42;;;9.65;;
15806;SDS011;8005;51.368;6.140;2023-03-01T07:22:46;18.65;;;9.85;;
15806;SDS011;8005;51.368;6.140;2023-03-01T07:24:19;15.70;;;9.10;;
15806;SDS011;8005;51.368;6.140;2023-03-01T07:25:53;16.25;;;8.80;;
15806;SDS011;8005;51.368;6.140;2023-03-01T07:27:26;17.67;;;9.85;;
15806;SDS011;8005;51.368;6.140;2023-03-01T07:28:59;18.27;;;9.95;;
15806;SDS011;8005;51.368;6.140;2023-03-01T07:30:37;15.77;;;8.65;;
15806;SDS011;8005;51.368;6.140;2023-03-01T07:32:12;18.15;;;8.65;;
15806;SDS011;8005;51.368;6.140;2023-03-01T07:33:45;14.90;;;8.77;;
15806;SDS011;8005;51.368;6.140;2023-03-01T07:35:22;18.95;;;10.02;;
15806;SDS011;8005;51.368;6.140;2023-03-01T07:36:58;18.15;;;8.73;;
15806;SDS011;8005;51.368;6.140;2023-03-01T07:38:33;16.58;;;8.73;;
15806;SDS011;8005;51.368;6.140;2023-03-01T07:40:06;14.98;;;7.35;;
15806;SDS011;8005;51.368;6.140;2023-03-01T07:41:41;15.20;;;8.60;;
15806;SDS011;8005;51.368;6.140;2023-03-01T07:43:19;15.52;;;9.27;;
15806;SDS011;8005;51.368;6.140;2023-03-01T07:45:05;15.23;;;8.35;;
15806;SDS011;8005;51.368;6.140;2023-03-01T07:46:37;16.98;;;9.10;;
15806;SDS011;8005;51.368;6.140;2023-03-01T07:48:10;14.80;;;8.80;;
15806;SDS011;8005;51.368;6.140;2023-03-01T07:49:46;16.33;;;8.98;;
15806;SDS011;8005;51.368;6.140;2023-03-01T07:51:18;17.02;;;9.55;;
15806;SDS011;8005;51.368;6.140;2023-03-01T07:52:56;15.02;;;8.55;;
15806;SDS011;8005;51.368;6.140;2023-03-01T07:54:29;11.30;;;6.82;;
15806;SDS011;8005;51.368;6.140;2023-03-01T07:56:07;16.52;;;9.27;;
15806;SDS011;8005;51.368;6.140;2023-03-01T07:57:40;15.43;;;9.38;;
15806;SDS011;8005;51.368;6.140;2023-03-01T07:59:17;20.23;;;9.35;;
15806;SDS011;8005;51.368;6.140;2023-03-01T08:00:52;15.82;;;8.95;;
15806;SDS011;8005;51.368;6.140;2023-03-01T08:02:25;12.90;;;6.97;;
15806;SDS011;8005;51.368;6.140;2023-03-01T08:03:57;16.98;;;8.98;;
15806;SDS011;8005;51.368;6.140;2023-03-01T08:05:32;17.80;;;8.68;;
15806;SDS011;8005;51.368;6.140;2023-03-01T08:07:14;14.80;;;7.80;;
15806;SDS011;8005;51.368;6.140;2023-03-01T08:08:47;17.80;;;8.85;;
15806;SDS011;8005;51.368;6.140;2023-03-01T08:10:22;14.15;;;9.07;;
15806;SDS011;8005;51.368;6.140;2023-03-01T08:12:30;18.60;;;9.40;;
15806;SDS011;8005;51.368;6.140;2023-03-01T08:14:03;20.42;;;8.88;;
15806;SDS011;8005;51.368;6.140;2023-03-01T08:15:53;15.07;;;8.70;;
15806;SDS011;8005;51.368;6.140;2023-03-01T08:17:36;14.55;;;8.90;;
15806;SDS011;8005;51.368;6.140;2023-03-01T08:19:21;16.67;;;9.07;;
15806;SDS011;8005;51.368;6.140;2023-03-01T08:21:04;17.42;;;9.63;;
15806;SDS011;8005;51.368;6.140;2023-03-01T08:22:40;15.73;;;8.25;;
15806;SDS011;8005;51.368;6.140;2023-03-01T08:24:15;18.90;;;8.48;;
15806;SDS011;8005;51.368;6.140;2023-03-01T08:25:48;19.17;;;9.63;;
15806;SDS011;8005;51.368;6.140;2023-03-01T08:27:20;14.35;;;8.60;;
15806;SDS011;8005;51.368;6.140;2023-03-01T08:28:56;15.05;;;8.07;;
15806;SDS011;8005;51.368;6.140;2023-03-01T08:30:33;17.17;;;10.35;;
15806;SDS011;8005;51.368;6.140;2023-03-01T08:32:19;12.90;;;8.55;;
15806;SDS011;8005;51.368;6.140;2023-03-01T08:36:31;15.07;;;8.20;;
15806;SDS011;8005;51.368;6.140;2023-03-01T08:38:15;13.05;;;7.82;;
15806;SDS011;8005;51.368;6.140;2023-03-01T08:39:57;16.50;;;8.13;;
15806;SDS011;8005;51.368;6.140;2023-03-01T08:42:09;14.80;;;8.07;;
15806;SDS011;8005;51.368;6.140;2023-03-01T08:43:46;13.93;;;7.43;;
15806;SDS011;8005;51.368;6.140;2023-03-01T08:45:18;15.93;;;8.25;;
15806;SDS011;8005;51.368;6.140;2023-03-01T08:46:52;15.43;;;8.27;;
15806;SDS011;8005;51.368;6.140;2023-03-01T08:48:27;13.32;;;8.27;;
15806;SDS011;8005;51.368;6.140;2023-03-01T08:50:00;11.32;;;7.60;;
15806;SDS011;8005;51.368;6.140;2023-03-01T08:51:34;11.73;;;7.30;;
15806;SDS011;8005;51.368;6.140;2023-03-01T08:53:10;15.65;;;7.82;;
15806;SDS011;8005;51.368;6.140;2023-03-01T08:54:46;14.13;;;7.07;;
15806;SDS011;8005;51.368;6.140;2023-03-01T08:56:20;13.13;;;8.27;;
15806;SDS011;8005;51.368;6.140;2023-03-01T08:57:55;12.55;;;7.50;;
15806;SDS011;8005;51.368;6.140;2023-03-01T08:59:35;14.63;;;7.40;;
15806;SDS011;8005;51.368;6.140;2023-03-01T09:01:13;13.07;;;7.63;;
15806;SDS011;8005;51.368;6.140;2023-03-01T09:02:50;12.23;;;6.68;;
15806;SDS011;8005;51.368;6.140;2023-03-01T09:04:25;12.68;;;7.25;;
15806;SDS011;8005;51.368;6.140;2023-03-01T09:06:06;14.40;;;7.60;;
15806;SDS011;8005;51.368;6.140;2023-03-01T09:07:39;15.00;;;8.32;;
15806;SDS011;8005;51.368;6.140;2023-03-01T09:09:15;12.13;;;6.90;;
15806;SDS011;8005;51.368;6.140;2023-03-01T09:10:48;12.63;;;7.43;;
15806;SDS011;8005;51.368;6.140;2023-03-01T09:12:20;18.67;;;7.23;;
15806;SDS011;8005;51.368;6.140;2023-03-01T09:13:52;15.02;;;7.88;;
15806;SDS011;8005;51.368;6.140;2023-03-01T09:15:24;15.43;;;7.90;;
15806;SDS011;8005;51.368;6.140;2023-03-01T09:16:57;15.27;;;7.82;;
15806;SDS011;8005;51.368;6.140;2023-03-01T09:18:31;16.88;;;8.50;;
15806;SDS011;8005;51.368;6.140;2023-03-01T09:20:04;13.00;;;8.25;;
15806;SDS011;8005;51.368;6.140;2023-03-01T09:23:13;12.63;;;7.35;;
15806;SDS011;8005;51.368;6.140;2023-03-01T09:24:46;15.10;;;8.13;;
15806;SDS011;8005;51.368;6.140;2023-03-01T09:26:23;15.68;;;8.73;;
15806;SDS011;8005;51.368;6.140;2023-03-01T09:28:00;14.95;;;7.85;;
15806;SDS011;8005;51.368;6.140;2023-03-01T09:29:36;16.20;;;8.75;;
15806;SDS011;8005;51.368;6.140;2023-03-01T09:31:12;13.90;;;8.93;;
15806;SDS011;8005;51.368;6.140;2023-03-01T09:34:16;14.10;;;8.60;;
15806;SDS011;8005;51.368;6.140;2023-03-01T09:35:58;14.57;;;8.32;;
15806;SDS011;8005;51.368;6.140;2023-03-01T09:37:31;12.93;;;8.38;;
15806;SDS011;8005;51.368;6.140;2023-03-01T09:39:08;15.57;;;9.57;;
15806;SDS011;8005;51.368;6.140;2023-03-01T09:40:43;13.45;;;8.75;;
15806;SDS011;8005;51.368;6.140;2023-03-01T09:42:21;16.25;;;8.63;;
15806;SDS011;8005;51.368;6.140;2023-03-01T09:44:10;13.45;;;8.65;;
15806;SDS011;8005;51.368;6.140;2023-03-01T09:46:03;16.63;;;9.10;;
15806;SDS011;8005;51.368;6.140;2023-03-01T09:47:36;14.38;;;8.05;;
15806;SDS011;8005;51.368;6.140;2023-03-01T09:49:18;19.52;;;8.93;;
15806;SDS011;8005;51.368;6.140;2023-03-01T09:51:23;14.95;;;8.90;;
15806;SDS011;8005;51.368;6.140;2023-03-01T09:53:49;13.77;;;8.48;;
15806;SDS011;8005;51.368;6.140;2023-03-01T09:56:04;11.60;;;7.78;;
15806;SDS011;8005;51.368;6.140;2023-03-01T09:58:47;13.98;;;9.70;;
15806;SDS011;8005;51.368;6.140;2023-03-01T10:00:43;13.95;;;8.95;;
15806;SDS011;8005;51.368;6.140;2023-03-01T10:02:55;15.07;;;8.18;;
15806;SDS011;8005;51.368;6.140;2023-03-01T10:06:17;14.52;;;8.75;;
15806;SDS011;8005;51.368;6.140;2023-03-01T10:08:13;14.15;;;8.15;;
15806;SDS011;8005;51.368;6.140;2023-03-01T10:10:08;19.17;;;8.90;;
15806;SDS011;8005;51.368;6.140;2023-03-01T10:12:00;14.98;;;9.02;;